Aquilla, Alabama
Current Conditions -  °F | °C
As of 12:58 PM on Monday 22 Dec 2014 (Local Time) from KMEI Reporting Station
Overcast Overcast  
Wind Chill: 15°   Ceiling: 700
Heat Index: 15°   Visibility: 10mi
Dew Point: 14°   Wind: 6mph
Humidity: 93%   Direction: 170°S
Pressure: 29.77"   Gusts: NA
Location:  31.6272°N, 88.354°W
Report Text: KMEI 221858Z 17005KT 10SM OVC007 15/14 A2977 RMK AO2 SLP079 T01500139
Loading
Personal Weather Stations






























Interactive Weather Map New forecast layout! Learn more

10-Day Weather Forecast

Advertisements
Track Severe Weather on mobile